Hlavní strana
METAR-TAF:

METAR-TAF

Letiště :

Malden, Missouri, Spojené státy americké

zeměpisná šířka: 36-35-54N, zeměpisná délka: 089-59-33W, výška: 90 m

Aktuální stav počasí

Zpráva byla vytvořena před 29 minutami, v 15:55 UTC
Severní vítr 5 kt
Teplota 6°C
Vlhkost vzduchu 93%
Tlak 1025 hPa
Viditelnost: 4.8 km
Zataženo ve výšce 500 ft
kouřmo

METAR: KMAW 181555Z AUTO 36005KT 3SM BR OVC005 06/05 A3026 RMK AO2

Čas: 10:24 (16:24 UTC)


TAF: chybějící

Stav a předpovědi počasí z více než 4 000 letišť (zprávy METAR a TAF).

Červené a žluté tečky na mapě představují dostupné meteorologické stanice.

Když kurzor umístíte na tečku, zobrazí se název stanice.

Pak kliknutím zobrazíte stav a předpověď počasí.

Chcete-li změnit mapu, kliknutím na zelené tlačítko se znaménkem +mapu přiblížíte, kliknutím na zelené tlačítko se znaménkem – mapu oddálíte a kliknutím na zelené šipky přejdete na sousední mapy.


METAR-TAF: